sensor_id;sensor_type;location;lat;lon;timestamp;P1;durP1;ratioP1;P2;durP2;ratioP2
3401;SDS011;1714;49.756;8.610;2023-09-19T00:00:20;3.03;;;1.10;;
3401;SDS011;1714;49.756;8.610;2023-09-19T00:10:55;2.85;;;1.15;;
3401;SDS011;1714;49.756;8.610;2023-09-19T00:21:31;3.13;;;1.20;;
3401;SDS011;1714;49.756;8.610;2023-09-19T00:32:06;7.20;;;1.67;;
3401;SDS011;1714;49.756;8.610;2023-09-19T00:42:41;1.70;;;0.98;;
3401;SDS011;1714;49.756;8.610;2023-09-19T00:53:18;7.68;;;1.20;;
3401;SDS011;1714;49.756;8.610;2023-09-19T01:03:57;3.28;;;1.38;;
3401;SDS011;1714;49.756;8.610;2023-09-19T01:36:18;4.55;;;1.23;;
3401;SDS011;1714;49.756;8.610;2023-09-19T01:46:53;5.35;;;1.60;;
3401;SDS011;1714;49.756;8.610;2023-09-19T02:08:09;1.48;;;1.10;;
3401;SDS011;1714;49.756;8.610;2023-09-19T02:18:44;5.95;;;1.67;;
3401;SDS011;1714;49.756;8.610;2023-09-19T02:29:20;2.80;;;1.35;;
3401;SDS011;1714;49.756;8.610;2023-09-19T02:39:56;2.15;;;1.15;;
3401;SDS011;1714;49.756;8.610;2023-09-19T02:50:30;3.53;;;1.40;;
3401;SDS011;1714;49.756;8.610;2023-09-19T03:01:09;1.35;;;1.25;;
3401;SDS011;1714;49.756;8.610;2023-09-19T03:11:47;3.47;;;1.27;;
3401;SDS011;1714;49.756;8.610;2023-09-19T03:22:22;2.20;;;1.33;;
3401;SDS011;1714;49.756;8.610;2023-09-19T03:32:58;3.60;;;1.83;;
3401;SDS011;1714;49.756;8.610;2023-09-19T03:43:33;2.50;;;1.85;;
3401;SDS011;1714;49.756;8.610;2023-09-19T03:54:10;5.72;;;1.67;;
3401;SDS011;1714;49.756;8.610;2023-09-19T04:04:44;3.13;;;1.60;;
3401;SDS011;1714;49.756;8.610;2023-09-19T04:15:20;6.30;;;2.50;;
3401;SDS011;1714;49.756;8.610;2023-09-19T04:25:59;4.03;;;1.83;;
3401;SDS011;1714;49.756;8.610;2023-09-19T04:36:34;2.70;;;1.67;;
3401;SDS011;1714;49.756;8.610;2023-09-19T04:47:10;6.75;;;2.53;;
3401;SDS011;1714;49.756;8.610;2023-09-19T04:57:46;3.90;;;2.20;;
3401;SDS011;1714;49.756;8.610;2023-09-19T05:08:23;3.97;;;2.38;;
3401;SDS011;1714;49.756;8.610;2023-09-19T05:18:58;7.05;;;2.85;;
3401;SDS011;1714;49.756;8.610;2023-09-19T05:29:34;8.18;;;2.90;;
3401;SDS011;1714;49.756;8.610;2023-09-19T05:40:09;5.80;;;3.10;;
3401;SDS011;1714;49.756;8.610;2023-09-19T05:50:44;8.50;;;2.92;;
3401;SDS011;1714;49.756;8.610;2023-09-19T06:01:21;3.85;;;2.50;;
3401;SDS011;1714;49.756;8.610;2023-09-19T06:11:56;3.97;;;2.33;;
3401;SDS011;1714;49.756;8.610;2023-09-19T06:22:31;5.72;;;2.80;;
3401;SDS011;1714;49.756;8.610;2023-09-19T06:33:05;7.80;;;2.20;;
3401;SDS011;1714;49.756;8.610;2023-09-19T06:43:40;6.10;;;2.03;;
3401;SDS011;1714;49.756;8.610;2023-09-19T06:54:16;8.02;;;3.30;;
3401;SDS011;1714;49.756;8.610;2023-09-19T07:04:52;11.02;;;2.03;;
3401;SDS011;1714;49.756;8.610;2023-09-19T07:15:27;4.93;;;2.05;;
3401;SDS011;1714;49.756;8.610;2023-09-19T07:26:03;7.45;;;1.60;;
3401;SDS011;1714;49.756;8.610;2023-09-19T07:36:39;4.20;;;1.75;;
3401;SDS011;1714;49.756;8.610;2023-09-19T07:47:16;7.32;;;1.90;;
3401;SDS011;1714;49.756;8.610;2023-09-19T07:57:51;6.47;;;2.42;;
3401;SDS011;1714;49.756;8.610;2023-09-19T08:08:27;8.18;;;2.08;;
3401;SDS011;1714;49.756;8.610;2023-09-19T08:19:01;4.25;;;1.52;;
3401;SDS011;1714;49.756;8.610;2023-09-19T08:29:36;4.55;;;1.95;;
3401;SDS011;1714;49.756;8.610;2023-09-19T08:40:11;5.18;;;1.70;;
3401;SDS011;1714;49.756;8.610;2023-09-19T09:01:27;6.55;;;1.67;;
3401;SDS011;1714;49.756;8.610;2023-09-19T09:12:02;5.55;;;1.77;;
3401;SDS011;1714;49.756;8.610;2023-09-19T09:22:50;4.80;;;1.75;;
3401;SDS011;1714;49.756;8.610;2023-09-19T09:33:27;13.00;;;1.50;;
3401;SDS011;1714;49.756;8.610;2023-09-19T09:44:12;5.00;;;1.48;;
3401;SDS011;1714;49.756;8.610;2023-09-19T09:55:02;5.30;;;1.63;;
3401;SDS011;1714;49.756;8.610;2023-09-19T10:05:44;7.93;;;2.97;;
3401;SDS011;1714;49.756;8.610;2023-09-19T10:16:19;8.75;;;2.60;;
3401;SDS011;1714;49.756;8.610;2023-09-19T10:26:55;5.45;;;1.77;;
3401;SDS011;1714;49.756;8.610;2023-09-19T10:37:30;6.55;;;1.67;;
3401;SDS011;1714;49.756;8.610;2023-09-19T10:48:08;7.30;;;1.60;;
3401;SDS011;1714;49.756;8.610;2023-09-19T10:58:43;7.43;;;2.28;;
3401;SDS011;1714;49.756;8.610;2023-09-19T11:09:19;5.07;;;1.70;;
3401;SDS011;1714;49.756;8.610;2023-09-19T11:30:48;8.98;;;1.88;;
3401;SDS011;1714;49.756;8.610;2023-09-19T11:52:00;11.88;;;1.55;;
3401;SDS011;1714;49.756;8.610;2023-09-19T12:02:39;3.65;;;1.65;;
3401;SDS011;1714;49.756;8.610;2023-09-19T12:13:21;2.72;;;1.30;;
3401;SDS011;1714;49.756;8.610;2023-09-19T12:34:38;6.07;;;1.77;;
3401;SDS011;1714;49.756;8.610;2023-09-19T12:45:24;8.95;;;2.05;;
3401;SDS011;1714;49.756;8.610;2023-09-19T12:55:59;4.57;;;1.30;;
3401;SDS011;1714;49.756;8.610;2023-09-19T13:06:35;3.25;;;1.10;;
3401;SDS011;1714;49.756;8.610;2023-09-19T13:17:17;3.80;;;1.38;;
3401;SDS011;1714;49.756;8.610;2023-09-19T13:27:56;5.80;;;1.17;;
3401;SDS011;1714;49.756;8.610;2023-09-19T13:38:32;2.22;;;0.93;;
3401;SDS011;1714;49.756;8.610;2023-09-19T13:49:08;4.47;;;0.98;;
3401;SDS011;1714;49.756;8.610;2023-09-19T13:59:43;4.47;;;1.48;;
3401;SDS011;1714;49.756;8.610;2023-09-19T14:10:18;2.45;;;0.90;;
3401;SDS011;1714;49.756;8.610;2023-09-19T14:20:53;2.67;;;0.82;;
3401;SDS011;1714;49.756;8.610;2023-09-19T14:31:28;1.20;;;0.70;;
3401;SDS011;1714;49.756;8.610;2023-09-19T14:42:04;6.07;;;1.45;;
3401;SDS011;1714;49.756;8.610;2023-09-19T14:52:39;1.55;;;0.82;;
3401;SDS011;1714;49.756;8.610;2023-09-19T15:03:14;1.73;;;0.88;;
3401;SDS011;1714;49.756;8.610;2023-09-19T15:13:51;1.73;;;0.70;;
3401;SDS011;1714;49.756;8.610;2023-09-19T15:24:28;3.03;;;1.00;;
3401;SDS011;1714;49.756;8.610;2023-09-19T15:35:04;2.20;;;1.20;;
3401;SDS011;1714;49.756;8.610;2023-09-19T15:45:40;3.22;;;0.80;;
3401;SDS011;1714;49.756;8.610;2023-09-19T15:56:16;1.92;;;0.70;;
3401;SDS011;1714;49.756;8.610;2023-09-19T16:06:51;1.40;;;0.80;;
3401;SDS011;1714;49.756;8.610;2023-09-19T16:17:27;5.00;;;1.88;;
3401;SDS011;1714;49.756;8.610;2023-09-19T16:28:01;1.73;;;0.80;;
3401;SDS011;1714;49.756;8.610;2023-09-19T16:38:37;2.00;;;0.63;;
3401;SDS011;1714;49.756;8.610;2023-09-19T16:49:12;3.10;;;1.00;;
3401;SDS011;1714;49.756;8.610;2023-09-19T16:59:48;2.42;;;0.85;;
3401;SDS011;1714;49.756;8.610;2023-09-19T17:10:24;3.58;;;1.30;;
3401;SDS011;1714;49.756;8.610;2023-09-19T17:21:02;3.30;;;0.83;;
3401;SDS011;1714;49.756;8.610;2023-09-19T17:31:40;4.33;;;1.27;;
3401;SDS011;1714;49.756;8.610;2023-09-19T17:42:15;2.60;;;1.52;;
3401;SDS011;1714;49.756;8.610;2023-09-19T17:52:50;2.85;;;1.23;;
3401;SDS011;1714;49.756;8.610;2023-09-19T18:03:25;1.75;;;0.80;;
3401;SDS011;1714;49.756;8.610;2023-09-19T18:14:01;3.20;;;1.00;;
3401;SDS011;1714;49.756;8.610;2023-09-19T18:24:36;3.55;;;0.90;;
3401;SDS011;1714;49.756;8.610;2023-09-19T18:35:11;4.82;;;1.23;;
3401;SDS011;1714;49.756;8.610;2023-09-19T18:45:56;1.25;;;0.70;;
3401;SDS011;1714;49.756;8.610;2023-09-19T18:56:32;4.25;;;0.90;;
3401;SDS011;1714;49.756;8.610;2023-09-19T19:07:09;1.42;;;0.88;;
3401;SDS011;1714;49.756;8.610;2023-09-19T19:17:46;2.60;;;1.20;;
3401;SDS011;1714;49.756;8.610;2023-09-19T19:28:21;1.73;;;0.90;;
3401;SDS011;1714;49.756;8.610;2023-09-19T19:38:59;2.53;;;1.27;;
3401;SDS011;1714;49.756;8.610;2023-09-19T19:49:34;1.92;;;0.90;;
3401;SDS011;1714;49.756;8.610;2023-09-19T20:00:10;1.92;;;0.80;;
3401;SDS011;1714;49.756;8.610;2023-09-19T20:10:46;1.60;;;0.77;;
3401;SDS011;1714;49.756;8.610;2023-09-19T20:21:21;4.25;;;0.93;;
3401;SDS011;1714;49.756;8.610;2023-09-19T20:31:56;1.70;;;0.80;;
3401;SDS011;1714;49.756;8.610;2023-09-19T20:42:31;1.95;;;0.75;;
3401;SDS011;1714;49.756;8.610;2023-09-19T20:53:06;2.35;;;0.80;;
3401;SDS011;1714;49.756;8.610;2023-09-19T21:03:43;2.15;;;0.90;;
3401;SDS011;1714;49.756;8.610;2023-09-19T21:14:18;0.70;;;0.57;;
3401;SDS011;1714;49.756;8.610;2023-09-19T21:24:53;1.88;;;1.08;;
3401;SDS011;1714;49.756;8.610;2023-09-19T21:35:29;1.63;;;0.77;;
3401;SDS011;1714;49.756;8.610;2023-09-19T21:46:04;2.58;;;1.10;;
3401;SDS011;1714;49.756;8.610;2023-09-19T21:56:40;4.47;;;0.85;;
3401;SDS011;1714;49.756;8.610;2023-09-19T22:07:15;2.30;;;1.17;;
3401;SDS011;1714;49.756;8.610;2023-09-19T22:17:50;3.92;;;1.58;;
3401;SDS011;1714;49.756;8.610;2023-09-19T22:28:25;2.85;;;0.95;;
3401;SDS011;1714;49.756;8.610;2023-09-19T22:39:02;2.60;;;1.00;;
3401;SDS011;1714;49.756;8.610;2023-09-19T22:49:47;1.52;;;0.95;;
3401;SDS011;1714;49.756;8.610;2023-09-19T23:00:22;3.17;;;0.98;;
3401;SDS011;1714;49.756;8.610;2023-09-19T23:11:06;3.13;;;1.02;;
3401;SDS011;1714;49.756;8.610;2023-09-19T23:21:43;2.42;;;1.20;;
3401;SDS011;1714;49.756;8.610;2023-09-19T23:32:19;1.50;;;1.00;;
3401;SDS011;1714;49.756;8.610;2023-09-19T23:42:55;3.15;;;1.15;;
3401;SDS011;1714;49.756;8.610;2023-09-19T23:53:31;2.90;;;1.25;;
